createdAt,value
2023-05-06T00:01:10.393Z,3.25
2023-05-06T00:03:37.297Z,3.40
2023-05-06T00:06:06.361Z,2.90
2023-05-06T00:08:33.090Z,2.70
2023-05-06T00:11:00.030Z,2.92
2023-05-06T00:13:26.676Z,2.72
2023-05-06T00:15:53.744Z,2.72
2023-05-06T00:18:22.486Z,2.63
2023-05-06T00:20:49.418Z,2.70
2023-05-06T00:23:16.417Z,2.55
2023-05-06T00:25:43.095Z,2.75
2023-05-06T00:28:09.657Z,3.47
2023-05-06T00:30:36.354Z,6.47
2023-05-06T00:33:03.513Z,3.78
2023-05-06T00:35:30.743Z,3.28
2023-05-06T00:38:14.399Z,3.50
2023-05-06T00:40:41.445Z,3.37
2023-05-06T00:43:08.224Z,6.93
2023-05-06T00:45:35.988Z,6.85
2023-05-06T00:48:04.565Z,11.07
2023-05-06T00:50:33.414Z,12.35
2023-05-06T00:53:03.257Z,11.80
2023-05-06T00:55:31.251Z,7.05
2023-05-06T00:57:58.297Z,6.80
2023-05-06T01:00:25.258Z,5.45
2023-05-06T01:02:52.017Z,4.10
2023-05-06T01:05:24.022Z,4.60
2023-05-06T01:07:59.926Z,4.00
2023-05-06T01:10:46.744Z,3.10
2023-05-06T01:13:37.362Z,3.08
2023-05-06T01:16:06.238Z,3.22
2023-05-06T01:18:33.722Z,2.80
2023-05-06T01:21:02.061Z,3.25
2023-05-06T01:23:28.696Z,3.05
2023-05-06T01:25:55.431Z,3.28
2023-05-06T01:28:22.370Z,3.20
2023-05-06T01:30:54.898Z,3.47
2023-05-06T01:33:46.751Z,2.90
2023-05-06T01:36:20.498Z,2.60
2023-05-06T01:38:50.097Z,3.15
2023-05-06T01:41:17.966Z,3.00
2023-05-06T01:43:47.574Z,3.35
2023-05-06T01:46:22.416Z,2.80
2023-05-06T01:48:55.227Z,2.88
2023-05-06T01:51:22.905Z,2.90
2023-05-06T01:53:49.728Z,3.03
2023-05-06T01:56:17.604Z,3.10
2023-05-06T01:58:44.284Z,2.95
2023-05-06T02:01:11.196Z,3.08
2023-05-06T02:03:37.927Z,3.45
2023-05-06T02:06:04.908Z,3.20
2023-05-06T02:08:31.835Z,3.13
2023-05-06T02:10:58.440Z,2.88
2023-05-06T02:13:25.199Z,3.20
2023-05-06T02:15:55.186Z,3.50
2023-05-06T02:18:22.209Z,3.00
2023-05-06T02:20:49.017Z,3.10
2023-05-06T02:23:15.752Z,3.03
2023-05-06T02:25:43.232Z,2.60
2023-05-06T02:28:14.420Z,3.63
2023-05-06T02:30:41.258Z,2.92
2023-05-06T02:33:07.975Z,2.60
2023-05-06T02:35:34.946Z,3.33
2023-05-06T02:38:01.739Z,3.35
2023-05-06T02:40:28.317Z,3.15
2023-05-06T02:42:54.922Z,3.13
2023-05-06T02:45:21.922Z,3.40
2023-05-06T02:47:48.632Z,3.25
2023-05-06T02:50:16.928Z,3.13
2023-05-06T02:52:45.111Z,2.78
2023-05-06T02:55:11.825Z,2.92
2023-05-06T02:57:38.579Z,2.88
2023-05-06T03:00:06.736Z,3.28
2023-05-06T03:02:33.544Z,3.25
2023-05-06T03:05:00.193Z,3.53
2023-05-06T03:07:27.170Z,3.00
2023-05-06T03:09:53.828Z,3.25
2023-05-06T03:12:20.687Z,3.50
2023-05-06T03:14:47.649Z,2.88
2023-05-06T03:17:14.383Z,3.20
2023-05-06T03:19:41.040Z,3.10
2023-05-06T03:22:08.169Z,3.00
2023-05-06T03:24:34.847Z,3.10
2023-05-06T03:27:01.854Z,3.25
2023-05-06T03:29:28.644Z,2.97
2023-05-06T03:31:58.401Z,3.03
2023-05-06T03:34:25.318Z,3.30
2023-05-06T03:36:52.036Z,3.20
2023-05-06T03:39:18.615Z,3.00
2023-05-06T03:41:45.667Z,3.05
2023-05-06T03:44:12.631Z,3.05
2023-05-06T03:46:40.216Z,2.92
2023-05-06T03:49:07.222Z,3.38
2023-05-06T03:51:34.376Z,3.25
2023-05-06T03:54:01.932Z,2.80
2023-05-06T03:56:28.605Z,3.47
2023-05-06T03:58:55.487Z,3.10
2023-05-06T04:01:22.235Z,3.40
2023-05-06T04:03:48.893Z,3.50
2023-05-06T04:06:16.088Z,3.55
2023-05-06T04:08:42.737Z,3.15
2023-05-06T04:11:09.292Z,3.67
2023-05-06T04:13:36.338Z,3.60
2023-05-06T04:16:04.054Z,3.47
2023-05-06T04:18:31.671Z,3.90
2023-05-06T04:23:27.996Z,3.53
2023-05-06T04:25:54.738Z,5.00
2023-05-06T04:28:22.164Z,6.20
2023-05-06T04:30:48.811Z,4.70
2023-05-06T04:33:15.970Z,4.70
2023-05-06T04:35:53.877Z,4.13
2023-05-06T04:38:25.882Z,4.88
2023-05-06T04:40:52.845Z,4.88
2023-05-06T04:43:19.826Z,4.88
2023-05-06T04:45:49.447Z,5.10
2023-05-06T04:48:18.419Z,4.80
2023-05-06T04:50:45.619Z,5.20
2023-05-06T04:53:14.383Z,4.30
2023-05-06T04:55:40.998Z,4.43
2023-05-06T04:58:08.068Z,4.38
2023-05-06T05:00:35.088Z,5.95
2023-05-06T05:03:02.221Z,5.68
2023-05-06T05:05:29.337Z,6.00
2023-05-06T05:07:56.669Z,7.70
2023-05-06T05:10:23.279Z,7.57
2023-05-06T05:12:50.126Z,7.35
2023-05-06T05:15:17.103Z,6.82
2023-05-06T05:17:44.594Z,6.47
2023-05-06T05:20:11.598Z,6.78
2023-05-06T05:22:38.458Z,7.07
2023-05-06T05:25:07.758Z,7.50
2023-05-06T05:27:35.207Z,7.78
2023-05-06T05:30:02.024Z,7.03
2023-05-06T05:32:28.658Z,7.18
2023-05-06T05:34:55.699Z,6.88
2023-05-06T05:37:22.405Z,6.55
2023-05-06T05:39:49.108Z,6.32
2023-05-06T05:42:16.099Z,6.10
2023-05-06T05:44:42.781Z,6.00
2023-05-06T05:47:09.359Z,6.00
2023-05-06T05:49:36.334Z,5.88
2023-05-06T05:52:03.127Z,5.55
2023-05-06T05:54:29.865Z,5.57
2023-05-06T05:56:56.750Z,5.35
2023-05-06T05:59:23.489Z,4.82
2023-05-06T06:01:50.087Z,4.93
2023-05-06T06:04:17.036Z,4.30
2023-05-06T06:06:43.874Z,3.80
2023-05-06T06:09:11.129Z,3.70
2023-05-06T06:11:38.004Z,3.70
2023-05-06T06:14:04.742Z,3.88
2023-05-06T06:16:32.957Z,3.75
2023-05-06T06:19:00.140Z,3.45
2023-05-06T06:21:27.741Z,3.30
2023-05-06T06:23:54.352Z,3.40
2023-05-06T06:26:21.448Z,3.50
2023-05-06T06:28:48.235Z,3.05
2023-05-06T06:31:14.967Z,3.22
2023-05-06T06:33:41.866Z,3.88
2023-05-06T06:36:08.855Z,3.30
2023-05-06T06:38:35.817Z,3.60
2023-05-06T06:41:02.578Z,3.58
2023-05-06T06:43:29.317Z,3.42
2023-05-06T06:45:56.447Z,3.53
2023-05-06T06:48:25.134Z,3.10
2023-05-06T06:50:52.160Z,3.05
2023-05-06T06:53:18.750Z,3.17
2023-05-06T06:55:45.889Z,3.65
2023-05-06T06:58:12.654Z,3.13
2023-05-06T07:00:39.299Z,2.72
2023-05-06T07:03:06.185Z,3.10
2023-05-06T07:05:32.989Z,2.90
2023-05-06T07:07:59.610Z,3.22
2023-05-06T07:10:26.849Z,2.92
2023-05-06T07:12:54.259Z,3.75
2023-05-06T07:15:21.076Z,3.20
2023-05-06T07:17:48.006Z,3.33
2023-05-06T07:20:16.358Z,3.05
2023-05-06T07:22:43.773Z,3.17
2023-05-06T07:25:11.064Z,3.30
2023-05-06T07:27:38.218Z,2.85
2023-05-06T07:30:05.473Z,2.92
2023-05-06T07:32:32.346Z,2.92
2023-05-06T07:34:59.066Z,2.90
2023-05-06T07:37:25.702Z,3.45
2023-05-06T07:39:52.854Z,2.88
2023-05-06T07:42:19.693Z,2.70
2023-05-06T07:44:46.311Z,2.80
2023-05-06T07:47:17.672Z,2.90
2023-05-06T07:49:44.353Z,3.17
2023-05-06T07:52:11.080Z,2.67
2023-05-06T07:54:37.868Z,2.70
2023-05-06T07:57:04.978Z,2.72
2023-05-06T07:59:31.555Z,2.80
2023-05-06T08:01:58.285Z,2.70
2023-05-06T08:04:25.046Z,2.67
2023-05-06T08:06:52.196Z,2.40
2023-05-06T08:09:23.096Z,2.75
2023-05-06T08:11:50.782Z,2.60
2023-05-06T08:14:17.371Z,2.80
2023-05-06T08:16:44.083Z,2.80
2023-05-06T08:19:10.700Z,2.63
2023-05-06T08:21:37.351Z,2.80
2023-05-06T08:24:04.458Z,2.70
2023-05-06T08:26:31.118Z,3.00
2023-05-06T08:28:58.868Z,2.42
2023-05-06T08:31:25.452Z,2.58
2023-05-06T08:33:54.420Z,2.47
2023-05-06T08:36:22.177Z,2.28
2023-05-06T08:38:51.055Z,2.42
2023-05-06T08:41:19.404Z,2.65
2023-05-06T08:43:47.901Z,2.50
2023-05-06T08:46:15.232Z,2.10
2023-05-06T08:48:42.128Z,2.70
2023-05-06T08:51:09.436Z,2.00
2023-05-06T08:53:36.604Z,2.25
2023-05-06T08:56:08.845Z,2.38
2023-05-06T08:58:38.788Z,2.03
2023-05-06T09:01:06.242Z,2.15
2023-05-06T09:03:32.944Z,2.15
2023-05-06T09:05:59.976Z,2.42
2023-05-06T09:08:26.640Z,2.20
2023-05-06T09:10:53.213Z,2.20
2023-05-06T09:13:20.155Z,2.63
2023-05-06T09:15:48.639Z,2.30
2023-05-06T09:18:16.572Z,2.10
2023-05-06T09:20:46.533Z,2.50
2023-05-06T09:23:15.359Z,2.63
2023-05-06T09:25:43.779Z,2.20
2023-05-06T09:28:11.766Z,2.08
2023-05-06T09:30:43.563Z,2.08
2023-05-06T09:33:11.475Z,2.05
2023-05-06T09:35:42.949Z,2.35
2023-05-06T09:38:10.742Z,2.42
2023-05-06T09:40:39.164Z,2.30
2023-05-06T09:43:06.289Z,2.05
2023-05-06T09:45:33.348Z,2.38
2023-05-06T09:48:01.197Z,1.98
2023-05-06T09:50:28.464Z,2.40
2023-05-06T09:52:56.275Z,2.10
2023-05-06T09:55:29.682Z,2.20
2023-05-06T09:57:58.317Z,2.13
2023-05-06T10:00:28.442Z,1.88
2023-05-06T10:02:56.067Z,2.65
2023-05-06T10:05:25.792Z,5.32
2023-05-06T10:07:53.545Z,2.38
2023-05-06T10:10:22.318Z,3.17
2023-05-06T10:12:50.747Z,2.10
2023-05-06T10:15:17.588Z,2.30
2023-05-06T10:17:48.478Z,2.40
2023-05-06T10:20:17.489Z,2.10
2023-05-06T10:22:47.425Z,2.25
2023-05-06T10:25:23.886Z,2.30
2023-05-06T10:27:51.265Z,2.45
2023-05-06T10:30:19.786Z,2.33
2023-05-06T10:32:47.031Z,2.15
2023-05-06T10:35:27.747Z,2.40
2023-05-06T10:37:57.035Z,2.17
2023-05-06T10:40:24.434Z,2.25
2023-05-06T10:42:51.524Z,2.38
2023-05-06T10:45:18.667Z,2.05
2023-05-06T10:47:57.804Z,2.30
2023-05-06T10:50:26.434Z,2.25
2023-05-06T10:52:59.459Z,2.22
2023-05-06T10:55:32.142Z,2.30
2023-05-06T10:58:04.643Z,2.28
2023-05-06T11:00:32.904Z,4.93
2023-05-06T11:03:06.534Z,3.17
2023-05-06T11:05:48.249Z,4.30
2023-05-06T11:08:15.849Z,2.20
2023-05-06T11:10:42.771Z,2.75
2023-05-06T11:13:24.962Z,2.40
2023-05-06T11:15:52.444Z,2.28
2023-05-06T11:18:24.910Z,2.40
2023-05-06T11:21:12.849Z,2.30
2023-05-06T11:23:42.740Z,2.30
2023-05-06T11:26:11.267Z,2.15
2023-05-06T11:28:49.353Z,2.50
2023-05-06T11:31:17.004Z,2.28
2023-05-06T11:33:52.755Z,2.30
2023-05-06T11:36:21.370Z,2.60
2023-05-06T11:38:51.192Z,2.47
2023-05-06T11:41:18.997Z,2.40
2023-05-06T11:43:53.857Z,2.17
2023-05-06T11:46:22.187Z,2.47
2023-05-06T11:48:50.454Z,2.83
2023-05-06T11:51:22.683Z,2.80
2023-05-06T11:53:49.608Z,2.40
2023-05-06T11:56:16.322Z,2.28
2023-05-06T11:58:43.315Z,2.20
2023-05-06T12:01:09.993Z,2.17
2023-05-06T12:03:36.788Z,2.92
2023-05-06T12:06:03.816Z,2.38
2023-05-06T12:08:33.427Z,2.28
2023-05-06T12:11:02.547Z,2.28
2023-05-06T12:13:30.088Z,2.70
2023-05-06T12:15:59.645Z,2.42
2023-05-06T12:18:27.287Z,2.80
2023-05-06T12:20:55.177Z,3.00
2023-05-06T12:23:25.072Z,2.67
2023-05-06T12:26:06.269Z,2.50
2023-05-06T12:28:36.354Z,2.90
2023-05-06T12:31:22.527Z,2.75
2023-05-06T12:33:50.722Z,2.53
2023-05-06T12:36:18.470Z,2.35
2023-05-06T12:39:00.153Z,2.38
2023-05-06T12:41:56.113Z,2.83
2023-05-06T12:44:37.171Z,3.22
2023-05-06T12:47:09.073Z,2.47
2023-05-06T12:49:49.579Z,2.42
2023-05-06T12:52:17.682Z,2.80
2023-05-06T12:54:44.618Z,2.70
2023-05-06T12:57:11.634Z,2.08
2023-05-06T12:59:39.077Z,2.53
2023-05-06T13:02:06.448Z,2.20
2023-05-06T13:04:33.470Z,2.05
2023-05-06T13:07:00.152Z,2.28
2023-05-06T13:09:27.023Z,2.00
2023-05-06T13:11:54.155Z,3.08
2023-05-06T13:14:21.936Z,2.47
2023-05-06T13:16:49.758Z,2.40
2023-05-06T13:21:46.742Z,2.60
2023-05-06T13:24:13.335Z,3.67
2023-05-06T13:26:40.299Z,2.90
2023-05-06T13:29:07.104Z,2.55
2023-05-06T13:31:34.871Z,2.58
2023-05-06T13:34:01.824Z,2.80
2023-05-06T13:36:28.636Z,2.70
2023-05-06T13:38:55.784Z,2.75
2023-05-06T13:41:22.553Z,2.63
2023-05-06T13:43:49.679Z,3.22
2023-05-06T13:46:16.421Z,2.58
2023-05-06T13:48:43.374Z,2.60
2023-05-06T13:51:10.007Z,2.72
2023-05-06T13:53:36.646Z,2.67
2023-05-06T13:56:03.582Z,2.72
2023-05-06T13:58:31.071Z,2.50
2023-05-06T14:00:57.645Z,3.00
2023-05-06T14:03:24.426Z,2.70
2023-05-06T14:05:51.772Z,2.75
2023-05-06T14:08:18.465Z,2.97
2023-05-06T14:10:45.694Z,2.85
2023-05-06T14:13:12.409Z,2.90
2023-05-06T14:15:38.983Z,3.40
2023-05-06T14:18:06.181Z,3.05
2023-05-06T14:20:32.922Z,2.88
2023-05-06T14:22:59.541Z,2.88
2023-05-06T14:25:27.003Z,2.97
2023-05-06T14:27:54.485Z,2.97
2023-05-06T14:30:21.790Z,3.10
2023-05-06T14:32:48.866Z,2.85
2023-05-06T14:35:15.505Z,2.60
2023-05-06T14:37:42.089Z,3.05
2023-05-06T14:40:10.266Z,3.70
2023-05-06T14:42:37.248Z,3.47
2023-05-06T14:45:04.627Z,3.63
2023-05-06T14:47:31.665Z,3.50
2023-05-06T14:49:58.508Z,3.03
2023-05-06T14:52:25.529Z,3.15
2023-05-06T14:54:52.727Z,3.28
2023-05-06T14:57:19.359Z,3.42
2023-05-06T14:59:46.181Z,2.80
2023-05-06T15:02:13.164Z,3.20
2023-05-06T15:04:39.822Z,5.18
2023-05-06T15:07:06.418Z,10.30
2023-05-06T15:09:33.147Z,3.92
2023-05-06T15:12:00.532Z,3.20
2023-05-06T15:14:27.162Z,4.53
2023-05-06T15:16:57.136Z,5.20
2023-05-06T15:19:24.218Z,5.15
2023-05-06T15:21:51.052Z,3.13
2023-05-06T15:24:18.227Z,2.97
2023-05-06T15:26:44.930Z,2.72
2023-05-06T15:29:11.655Z,2.92
2023-05-06T15:31:41.082Z,3.13
2023-05-06T15:34:10.632Z,3.15
2023-05-06T15:36:37.724Z,3.10
2023-05-06T15:39:04.918Z,3.08
2023-05-06T15:41:32.933Z,3.20
2023-05-06T15:44:01.220Z,3.10
2023-05-06T15:46:29.246Z,3.08
2023-05-06T15:49:17.449Z,3.22
2023-05-06T15:51:43.766Z,3.15
2023-05-06T15:54:10.452Z,2.75
2023-05-06T15:56:41.033Z,3.45
2023-05-06T15:59:08.809Z,3.20
2023-05-06T16:02:19.060Z,3.25
2023-05-06T16:04:23.027Z,3.03
2023-05-06T16:06:49.931Z,3.22
2023-05-06T16:09:16.582Z,3.00
2023-05-06T16:11:43.416Z,3.00
2023-05-06T16:14:10.038Z,3.00
2023-05-06T16:16:36.839Z,3.25
2023-05-06T16:19:03.971Z,3.42
2023-05-06T16:21:30.662Z,3.53
2023-05-06T16:23:57.393Z,3.30
2023-05-06T16:26:24.720Z,2.90
2023-05-06T16:28:51.550Z,3.20
2023-05-06T16:31:18.291Z,3.45
2023-05-06T16:33:45.176Z,3.30
2023-05-06T16:36:12.587Z,3.17
2023-05-06T16:38:39.303Z,3.10
2023-05-06T16:41:06.145Z,3.13
2023-05-06T16:43:32.703Z,3.55
2023-05-06T16:46:00.353Z,3.03
2023-05-06T16:48:27.210Z,29.65
2023-05-06T16:50:53.826Z,13.65
2023-05-06T16:53:24.869Z,4.03
2023-05-06T16:55:51.856Z,3.15
2023-05-06T16:58:18.491Z,3.40
2023-05-06T17:00:45.349Z,3.20
2023-05-06T17:03:12.443Z,2.92
2023-05-06T17:05:39.188Z,3.35
2023-05-06T17:08:06.908Z,3.25
2023-05-06T17:10:33.780Z,3.33
2023-05-06T17:13:00.701Z,3.30
2023-05-06T17:15:27.386Z,3.17
2023-05-06T17:17:54.462Z,3.30
2023-05-06T17:20:21.245Z,3.28
2023-05-06T17:22:48.036Z,3.60
2023-05-06T17:25:15.604Z,3.38
2023-05-06T17:27:42.360Z,3.63
2023-05-06T17:30:12.422Z,3.50
2023-05-06T17:32:40.322Z,3.10
2023-05-06T17:35:07.707Z,2.83
2023-05-06T17:37:34.878Z,3.05
2023-05-06T17:40:02.325Z,2.90
2023-05-06T17:42:30.027Z,2.95
2023-05-06T17:44:56.736Z,3.00
2023-05-06T17:47:23.753Z,3.10
2023-05-06T17:49:52.908Z,3.05
2023-05-06T17:52:20.141Z,3.17
2023-05-06T17:54:57.113Z,3.58
2023-05-06T17:57:34.029Z,3.10
2023-05-06T18:00:00.844Z,3.03
2023-05-06T18:02:27.565Z,3.10
2023-05-06T18:04:54.393Z,2.90
2023-05-06T18:07:21.258Z,2.92
2023-05-06T18:09:52.372Z,3.20
2023-05-06T18:12:20.112Z,3.13
2023-05-06T18:14:47.946Z,3.22
2023-05-06T18:17:14.668Z,3.00
2023-05-06T18:19:41.440Z,2.90
2023-05-06T18:22:08.087Z,3.80
2023-05-06T18:24:34.734Z,3.17
2023-05-06T18:27:02.350Z,3.35
2023-05-06T18:29:30.503Z,3.65
2023-05-06T18:31:57.383Z,4.05
2023-05-06T18:34:24.048Z,3.80
2023-05-06T18:36:50.883Z,4.80
2023-05-06T18:39:17.557Z,4.80
2023-05-06T18:41:44.498Z,4.00
2023-05-06T18:44:12.282Z,4.40
2023-05-06T18:46:38.936Z,4.28
2023-05-06T18:49:05.900Z,4.20
2023-05-06T18:51:32.796Z,4.05
2023-05-06T18:53:59.532Z,3.10
2023-05-06T18:56:26.214Z,3.15
2023-05-06T18:58:53.028Z,2.92
2023-05-06T19:01:19.703Z,3.35
2023-05-06T19:03:46.899Z,2.92
2023-05-06T19:06:13.735Z,3.20
2023-05-06T19:08:40.816Z,3.10
2023-05-06T19:11:14.516Z,3.17
2023-05-06T19:13:43.464Z,2.65
2023-05-06T19:16:10.175Z,2.85
2023-05-06T19:18:37.086Z,3.15
2023-05-06T19:21:03.901Z,2.90
2023-05-06T19:23:32.142Z,2.60
2023-05-06T19:25:58.846Z,2.67
2023-05-06T19:28:25.577Z,2.95
2023-05-06T19:30:52.500Z,2.83
2023-05-06T19:33:19.344Z,3.40
2023-05-06T19:35:46.151Z,3.10
2023-05-06T19:38:12.870Z,3.42
2023-05-06T19:40:39.716Z,2.78
2023-05-06T19:43:06.311Z,2.95
2023-05-06T19:45:34.138Z,3.50
2023-05-06T19:48:04.186Z,2.83
2023-05-06T19:50:33.285Z,3.10
2023-05-06T19:52:59.916Z,3.10
2023-05-06T19:55:26.746Z,3.28
2023-05-06T19:57:56.967Z,2.60
2023-05-06T20:00:25.457Z,3.00
2023-05-06T20:02:52.397Z,2.70
2023-05-06T20:05:19.246Z,2.70
2023-05-06T20:07:46.127Z,2.83
2023-05-06T20:10:13.742Z,2.65
2023-05-06T20:12:43.493Z,2.58
2023-05-06T20:15:10.618Z,2.47
2023-05-06T20:17:37.505Z,2.85
2023-05-06T20:20:09.669Z,2.92
2023-05-06T20:22:40.438Z,2.50
2023-05-06T20:25:09.529Z,2.83
2023-05-06T20:27:36.462Z,2.92
2023-05-06T20:30:03.461Z,2.80
2023-05-06T20:32:31.318Z,2.70
2023-05-06T20:34:58.354Z,2.70
2023-05-06T20:37:25.793Z,2.97
2023-05-06T20:39:52.479Z,2.88
2023-05-06T20:42:19.073Z,2.83
2023-05-06T20:44:45.877Z,3.20
2023-05-06T20:47:12.814Z,2.90
2023-05-06T20:49:39.878Z,3.15
2023-05-06T20:52:07.937Z,2.85
2023-05-06T20:54:34.850Z,3.30
2023-05-06T20:57:02.571Z,2.70
2023-05-06T20:59:29.734Z,2.95
2023-05-06T21:01:56.706Z,2.80
2023-05-06T21:04:23.408Z,3.20
2023-05-06T21:06:50.413Z,3.08
2023-05-06T21:09:18.339Z,3.00
2023-05-06T21:11:45.308Z,2.70
2023-05-06T21:14:12.808Z,2.78
2023-05-06T21:16:40.582Z,2.80
2023-05-06T21:19:07.612Z,3.10
2023-05-06T21:21:34.793Z,3.00
2023-05-06T21:24:01.707Z,2.72
2023-05-06T21:26:30.334Z,3.17
2023-05-06T21:28:57.190Z,3.00
2023-05-06T21:31:25.243Z,2.90
2023-05-06T21:33:55.307Z,3.08
2023-05-06T21:36:22.137Z,2.50
2023-05-06T21:39:00.969Z,2.80
2023-05-06T21:41:28.425Z,2.42
2023-05-06T21:43:55.144Z,2.67
2023-05-06T21:46:21.804Z,2.90
2023-05-06T21:48:48.671Z,2.58
2023-05-06T21:51:15.306Z,2.90
2023-05-06T21:53:41.868Z,2.85
2023-05-06T21:56:08.592Z,2.85
2023-05-06T21:58:35.196Z,2.78
2023-05-06T22:01:01.773Z,2.88
2023-05-06T22:03:28.809Z,2.88
2023-05-06T22:05:55.668Z,2.72
2023-05-06T22:08:22.309Z,2.60
2023-05-06T22:10:49.421Z,2.75
2023-05-06T22:13:16.526Z,2.90
2023-05-06T22:15:43.467Z,2.85
2023-05-06T22:18:10.449Z,3.10
2023-05-06T22:20:37.600Z,2.80
2023-05-06T22:23:04.372Z,3.00
2023-05-06T22:25:31.624Z,2.50
2023-05-06T22:27:58.267Z,2.60
2023-05-06T22:30:24.976Z,2.50
2023-05-06T22:32:51.662Z,2.83
2023-05-06T22:35:18.456Z,2.80
2023-05-06T22:37:45.526Z,2.50
2023-05-06T22:40:12.915Z,2.70
2023-05-06T22:42:39.659Z,2.33
2023-05-06T22:45:07.073Z,2.65
2023-05-06T22:47:33.896Z,2.60
2023-05-06T22:50:01.371Z,2.60
2023-05-06T22:52:27.937Z,2.90
2023-05-06T22:54:54.945Z,2.80
2023-05-06T22:57:23.309Z,2.70
2023-05-06T22:59:49.956Z,2.55
2023-05-06T23:02:16.948Z,2.40
2023-05-06T23:04:43.616Z,2.65
2023-05-06T23:07:10.306Z,2.83
2023-05-06T23:09:36.939Z,2.70
2023-05-06T23:12:03.885Z,2.80
2023-05-06T23:14:30.454Z,3.08
2023-05-06T23:16:57.237Z,2.70
2023-05-06T23:19:24.095Z,2.50
2023-05-06T23:21:50.675Z,3.03
2023-05-06T23:24:17.514Z,2.50
2023-05-06T23:26:44.176Z,2.70
2023-05-06T23:29:10.831Z,2.45
2023-05-06T23:31:37.557Z,2.70
2023-05-06T23:34:04.638Z,3.15
2023-05-06T23:36:31.209Z,2.53
2023-05-06T23:38:58.121Z,2.53
2023-05-06T23:41:24.847Z,2.78
2023-05-06T23:43:51.406Z,2.75
2023-05-06T23:46:18.114Z,3.00
2023-05-06T23:48:44.754Z,2.78
2023-05-06T23:51:11.365Z,3.10
2023-05-06T23:53:38.309Z,2.90
2023-05-06T23:56:05.449Z,2.95
2023-05-06T23:58:32.054Z,3.15
